sensor_id;sensor_type;location;lat;lon;timestamp;temperature;humidity
3699;DHT22;1865;50.918;7.092;2023-06-26T00:01:50;26.30;42.30
3699;DHT22;1865;50.918;7.092;2023-06-26T00:04:15;26.30;42.40
3699;DHT22;1865;50.918;7.092;2023-06-26T00:06:41;26.30;42.80
3699;DHT22;1865;50.918;7.092;2023-06-26T00:09:07;26.30;42.30
3699;DHT22;1865;50.918;7.092;2023-06-26T00:11:33;26.40;44.20
3699;DHT22;1865;50.918;7.092;2023-06-26T00:13:59;26.50;43.90
3699;DHT22;1865;50.918;7.092;2023-06-26T00:16:26;26.30;43.60
3699;DHT22;1865;50.918;7.092;2023-06-26T00:18:52;26.20;43.30
3699;DHT22;1865;50.918;7.092;2023-06-26T00:21:18;26.20;43.90
3699;DHT22;1865;50.918;7.092;2023-06-26T00:23:44;26.10;44.00
3699;DHT22;1865;50.918;7.092;2023-06-26T00:26:10;26.00;44.90
3699;DHT22;1865;50.918;7.092;2023-06-26T00:28:36;26.10;44.70
3699;DHT22;1865;50.918;7.092;2023-06-26T00:31:01;25.90;45.00
3699;DHT22;1865;50.918;7.092;2023-06-26T00:33:27;25.80;45.60
3699;DHT22;1865;50.918;7.092;2023-06-26T00:35:53;25.80;45.50
3699;DHT22;1865;50.918;7.092;2023-06-26T00:38:19;25.70;45.50
3699;DHT22;1865;50.918;7.092;2023-06-26T00:40:45;25.80;45.70
3699;DHT22;1865;50.918;7.092;2023-06-26T00:43:11;25.60;46.10
3699;DHT22;1865;50.918;7.092;2023-06-26T00:45:36;25.50;46.70
3699;DHT22;1865;50.918;7.092;2023-06-26T00:48:02;25.60;46.80
3699;DHT22;1865;50.918;7.092;2023-06-26T00:50:28;25.40;47.10
3699;DHT22;1865;50.918;7.092;2023-06-26T00:52:54;25.40;47.10
3699;DHT22;1865;50.918;7.092;2023-06-26T00:55:26;25.30;47.40
3699;DHT22;1865;50.918;7.092;2023-06-26T00:57:52;25.30;47.60
3699;DHT22;1865;50.918;7.092;2023-06-26T01:00:18;25.20;47.30
3699;DHT22;1865;50.918;7.092;2023-06-26T01:02:43;25.20;47.50
3699;DHT22;1865;50.918;7.092;2023-06-26T01:05:09;25.20;47.70
3699;DHT22;1865;50.918;7.092;2023-06-26T01:07:38;25.00;48.10
3699;DHT22;1865;50.918;7.092;2023-06-26T01:10:05;25.00;48.20
3699;DHT22;1865;50.918;7.092;2023-06-26T01:12:32;24.90;48.50
3699;DHT22;1865;50.918;7.092;2023-06-26T01:14:59;24.90;48.70
3699;DHT22;1865;50.918;7.092;2023-06-26T01:17:26;24.90;48.40
3699;DHT22;1865;50.918;7.092;2023-06-26T01:19:53;24.90;48.90
3699;DHT22;1865;50.918;7.092;2023-06-26T01:22:27;24.80;48.40
3699;DHT22;1865;50.918;7.092;2023-06-26T01:27:38;24.80;48.80
3699;DHT22;1865;50.918;7.092;2023-06-26T01:30:05;24.80;48.80
3699;DHT22;1865;50.918;7.092;2023-06-26T01:32:32;24.80;49.30
3699;DHT22;1865;50.918;7.092;2023-06-26T01:34:59;24.70;48.90
3699;DHT22;1865;50.918;7.092;2023-06-26T01:37:25;24.60;49.10
3699;DHT22;1865;50.918;7.092;2023-06-26T01:39:50;24.60;49.30
3699;DHT22;1865;50.918;7.092;2023-06-26T01:42:16;24.60;49.20
3699;DHT22;1865;50.918;7.092;2023-06-26T01:44:45;24.50;49.50
3699;DHT22;1865;50.918;7.092;2023-06-26T01:47:16;24.50;49.10
3699;DHT22;1865;50.918;7.092;2023-06-26T01:52:21;24.50;49.00
3699;DHT22;1865;50.918;7.092;2023-06-26T01:57:42;24.40;49.20
3699;DHT22;1865;50.918;7.092;2023-06-26T02:00:11;24.40;49.10
3699;DHT22;1865;50.918;7.092;2023-06-26T02:02:36;24.30;49.50
3699;DHT22;1865;50.918;7.092;2023-06-26T02:05:02;24.20;49.80
3699;DHT22;1865;50.918;7.092;2023-06-26T02:07:28;24.20;49.80
3699;DHT22;1865;50.918;7.092;2023-06-26T02:09:53;24.20;49.70
3699;DHT22;1865;50.918;7.092;2023-06-26T02:12:19;24.10;49.90
3699;DHT22;1865;50.918;7.092;2023-06-26T02:14:45;24.10;49.80
3699;DHT22;1865;50.918;7.092;2023-06-26T02:17:10;24.10;49.80
3699;DHT22;1865;50.918;7.092;2023-06-26T02:19:36;24.10;49.90
3699;DHT22;1865;50.918;7.092;2023-06-26T02:22:01;24.10;50.20
3699;DHT22;1865;50.918;7.092;2023-06-26T02:24:27;24.10;50.40
3699;DHT22;1865;50.918;7.092;2023-06-26T02:26:56;24.00;50.00
3699;DHT22;1865;50.918;7.092;2023-06-26T02:29:22;23.90;49.80
3699;DHT22;1865;50.918;7.092;2023-06-26T02:31:47;23.80;50.50
3699;DHT22;1865;50.918;7.092;2023-06-26T02:34:14;23.80;50.60
3699;DHT22;1865;50.918;7.092;2023-06-26T02:36:39;23.70;50.40
3699;DHT22;1865;50.918;7.092;2023-06-26T02:39:05;23.70;51.00
3699;DHT22;1865;50.918;7.092;2023-06-26T02:41:31;23.60;50.70
3699;DHT22;1865;50.918;7.092;2023-06-26T02:43:56;23.60;51.00
3699;DHT22;1865;50.918;7.092;2023-06-26T02:46:22;23.60;50.80
3699;DHT22;1865;50.918;7.092;2023-06-26T02:48:47;23.60;50.50
3699;DHT22;1865;50.918;7.092;2023-06-26T02:51:13;23.60;50.70
3699;DHT22;1865;50.918;7.092;2023-06-26T02:53:39;23.60;50.80
3699;DHT22;1865;50.918;7.092;2023-06-26T02:56:04;23.60;50.80
3699;DHT22;1865;50.918;7.092;2023-06-26T02:58:30;23.60;51.00
3699;DHT22;1865;50.918;7.092;2023-06-26T03:00:55;23.40;51.40
3699;DHT22;1865;50.918;7.092;2023-06-26T03:03:21;23.40;51.80
3699;DHT22;1865;50.918;7.092;2023-06-26T03:05:47;23.50;51.40
3699;DHT22;1865;50.918;7.092;2023-06-26T03:08:12;23.40;51.20
3699;DHT22;1865;50.918;7.092;2023-06-26T03:10:38;23.40;51.90
3699;DHT22;1865;50.918;7.092;2023-06-26T03:13:03;23.40;51.80
3699;DHT22;1865;50.918;7.092;2023-06-26T03:15:29;23.40;52.10
3699;DHT22;1865;50.918;7.092;2023-06-26T03:17:54;23.30;52.30
3699;DHT22;1865;50.918;7.092;2023-06-26T03:20:20;23.30;52.50
3699;DHT22;1865;50.918;7.092;2023-06-26T03:22:45;23.20;51.70
3699;DHT22;1865;50.918;7.092;2023-06-26T03:25:11;23.10;53.00
3699;DHT22;1865;50.918;7.092;2023-06-26T03:27:36;23.20;52.80
3699;DHT22;1865;50.918;7.092;2023-06-26T03:30:02;23.20;52.60
3699;DHT22;1865;50.918;7.092;2023-06-26T03:32:27;23.20;52.50
3699;DHT22;1865;50.918;7.092;2023-06-26T03:34:53;23.20;52.20
3699;DHT22;1865;50.918;7.092;2023-06-26T03:37:18;23.20;52.30
3699;DHT22;1865;50.918;7.092;2023-06-26T03:39:44;23.20;52.10
3699;DHT22;1865;50.918;7.092;2023-06-26T03:42:09;23.20;52.10
3699;DHT22;1865;50.918;7.092;2023-06-26T03:44:35;23.20;51.70
3699;DHT22;1865;50.918;7.092;2023-06-26T03:47:00;23.20;51.70
3699;DHT22;1865;50.918;7.092;2023-06-26T03:49:26;23.20;51.80
3699;DHT22;1865;50.918;7.092;2023-06-26T03:51:51;23.20;51.90
3699;DHT22;1865;50.918;7.092;2023-06-26T03:54:17;23.10;52.10
3699;DHT22;1865;50.918;7.092;2023-06-26T03:56:43;23.20;52.30
3699;DHT22;1865;50.918;7.092;2023-06-26T03:59:10;23.20;52.50
3699;DHT22;1865;50.918;7.092;2023-06-26T04:01:36;23.20;52.60
3699;DHT22;1865;50.918;7.092;2023-06-26T04:04:02;23.30;52.70
3699;DHT22;1865;50.918;7.092;2023-06-26T04:06:28;23.30;52.70
3699;DHT22;1865;50.918;7.092;2023-06-26T04:08:53;23.40;52.70
3699;DHT22;1865;50.918;7.092;2023-06-26T04:11:19;23.40;52.60
3699;DHT22;1865;50.918;7.092;2023-06-26T04:13:44;23.50;52.80
3699;DHT22;1865;50.918;7.092;2023-06-26T04:16:10;23.50;52.70
3699;DHT22;1865;50.918;7.092;2023-06-26T04:18:37;23.60;52.50
3699;DHT22;1865;50.918;7.092;2023-06-26T04:21:10;23.70;52.60
3699;DHT22;1865;50.918;7.092;2023-06-26T04:23:40;23.80;52.30
3699;DHT22;1865;50.918;7.092;2023-06-26T04:26:06;23.90;52.10
3699;DHT22;1865;50.918;7.092;2023-06-26T04:28:32;24.00;52.00
3699;DHT22;1865;50.918;7.092;2023-06-26T04:30:58;24.00;51.70
3699;DHT22;1865;50.918;7.092;2023-06-26T04:33:25;24.10;51.60
3699;DHT22;1865;50.918;7.092;2023-06-26T04:35:51;24.20;51.60
3699;DHT22;1865;50.918;7.092;2023-06-26T04:38:16;24.30;51.70
3699;DHT22;1865;50.918;7.092;2023-06-26T04:40:42;24.30;51.70
3699;DHT22;1865;50.918;7.092;2023-06-26T04:43:08;24.30;51.60
3699;DHT22;1865;50.918;7.092;2023-06-26T04:45:33;24.40;51.40
3699;DHT22;1865;50.918;7.092;2023-06-26T04:47:59;24.40;51.60
3699;DHT22;1865;50.918;7.092;2023-06-26T04:50:25;24.40;49.80
3699;DHT22;1865;50.918;7.092;2023-06-26T04:52:51;24.50;49.20
3699;DHT22;1865;50.918;7.092;2023-06-26T04:55:16;24.70;48.80
3699;DHT22;1865;50.918;7.092;2023-06-26T04:57:42;24.80;47.90
3699;DHT22;1865;50.918;7.092;2023-06-26T05:00:08;24.90;47.60
3699;DHT22;1865;50.918;7.092;2023-06-26T05:02:36;25.10;47.10
3699;DHT22;1865;50.918;7.092;2023-06-26T05:05:02;25.10;45.80
3699;DHT22;1865;50.918;7.092;2023-06-26T05:07:27;25.20;45.90
3699;DHT22;1865;50.918;7.092;2023-06-26T05:09:53;25.40;46.00
3699;DHT22;1865;50.918;7.092;2023-06-26T05:12:18;25.20;45.00
3699;DHT22;1865;50.918;7.092;2023-06-26T05:14:44;25.30;46.20
3699;DHT22;1865;50.918;7.092;2023-06-26T05:17:10;25.50;44.80
3699;DHT22;1865;50.918;7.092;2023-06-26T05:19:36;25.50;44.70
3699;DHT22;1865;50.918;7.092;2023-06-26T05:22:02;25.60;44.30
3699;DHT22;1865;50.918;7.092;2023-06-26T05:24:36;25.60;44.10
3699;DHT22;1865;50.918;7.092;2023-06-26T05:27:02;25.50;44.20
3699;DHT22;1865;50.918;7.092;2023-06-26T05:29:32;25.60;43.90
3699;DHT22;1865;50.918;7.092;2023-06-26T05:31:59;25.70;43.30
3699;DHT22;1865;50.918;7.092;2023-06-26T05:34:26;25.70;43.40
3699;DHT22;1865;50.918;7.092;2023-06-26T05:36:57;25.70;43.50
3699;DHT22;1865;50.918;7.092;2023-06-26T05:39:23;25.60;43.20
3699;DHT22;1865;50.918;7.092;2023-06-26T05:41:49;25.70;43.50
3699;DHT22;1865;50.918;7.092;2023-06-26T05:44:14;25.70;43.50
3699;DHT22;1865;50.918;7.092;2023-06-26T05:46:40;25.50;43.70
3699;DHT22;1865;50.918;7.092;2023-06-26T05:49:05;25.60;43.60
3699;DHT22;1865;50.918;7.092;2023-06-26T05:51:31;25.60;43.20
3699;DHT22;1865;50.918;7.092;2023-06-26T05:53:57;25.60;43.50
3699;DHT22;1865;50.918;7.092;2023-06-26T05:56:22;25.70;43.20
3699;DHT22;1865;50.918;7.092;2023-06-26T05:58:49;25.70;43.00
3699;DHT22;1865;50.918;7.092;2023-06-26T06:01:15;25.70;43.10
3699;DHT22;1865;50.918;7.092;2023-06-26T06:03:40;25.90;43.30
3699;DHT22;1865;50.918;7.092;2023-06-26T06:06:06;25.60;44.40
3699;DHT22;1865;50.918;7.092;2023-06-26T06:08:31;25.60;44.80
3699;DHT22;1865;50.918;7.092;2023-06-26T06:10:59;25.40;44.20
3699;DHT22;1865;50.918;7.092;2023-06-26T06:13:25;25.30;44.70
3699;DHT22;1865;50.918;7.092;2023-06-26T06:15:50;25.30;45.10
3699;DHT22;1865;50.918;7.092;2023-06-26T06:18:16;25.10;45.20
3699;DHT22;1865;50.918;7.092;2023-06-26T06:20:42;25.30;45.50
3699;DHT22;1865;50.918;7.092;2023-06-26T06:23:07;25.30;45.50
3699;DHT22;1865;50.918;7.092;2023-06-26T06:25:33;25.40;44.70
3699;DHT22;1865;50.918;7.092;2023-06-26T06:27:58;25.50;45.00
3699;DHT22;1865;50.918;7.092;2023-06-26T06:30:24;25.60;44.50
3699;DHT22;1865;50.918;7.092;2023-06-26T06:32:49;25.70;44.30
3699;DHT22;1865;50.918;7.092;2023-06-26T06:35:18;25.60;44.10
3699;DHT22;1865;50.918;7.092;2023-06-26T06:37:44;25.50;44.60
3699;DHT22;1865;50.918;7.092;2023-06-26T06:40:10;25.70;44.50
3699;DHT22;1865;50.918;7.092;2023-06-26T06:42:36;25.80;44.50
3699;DHT22;1865;50.918;7.092;2023-06-26T06:45:03;25.80;43.70
3699;DHT22;1865;50.918;7.092;2023-06-26T06:47:29;25.70;44.40
3699;DHT22;1865;50.918;7.092;2023-06-26T06:49:54;25.70;44.60
3699;DHT22;1865;50.918;7.092;2023-06-26T06:52:20;25.40;45.10
3699;DHT22;1865;50.918;7.092;2023-06-26T06:54:56;25.50;45.50
3699;DHT22;1865;50.918;7.092;2023-06-26T06:57:24;25.60;45.50
3699;DHT22;1865;50.918;7.092;2023-06-26T06:59:49;25.70;44.80
3699;DHT22;1865;50.918;7.092;2023-06-26T07:02:18;25.70;44.30
3699;DHT22;1865;50.918;7.092;2023-06-26T07:04:43;25.50;45.20
3699;DHT22;1865;50.918;7.092;2023-06-26T07:07:09;25.70;45.30
3699;DHT22;1865;50.918;7.092;2023-06-26T07:09:38;25.70;44.90
3699;DHT22;1865;50.918;7.092;2023-06-26T07:12:04;25.60;45.00
3699;DHT22;1865;50.918;7.092;2023-06-26T07:14:29;25.60;45.30
3699;DHT22;1865;50.918;7.092;2023-06-26T07:16:55;25.50;45.90
3699;DHT22;1865;50.918;7.092;2023-06-26T07:19:20;25.40;45.80
3699;DHT22;1865;50.918;7.092;2023-06-26T07:21:46;25.30;46.10
3699;DHT22;1865;50.918;7.092;2023-06-26T07:24:12;25.30;46.90
3699;DHT22;1865;50.918;7.092;2023-06-26T07:26:38;25.50;46.00
3699;DHT22;1865;50.918;7.092;2023-06-26T07:29:03;25.40;46.30
3699;DHT22;1865;50.918;7.092;2023-06-26T07:31:29;25.20;46.50
3699;DHT22;1865;50.918;7.092;2023-06-26T07:33:55;25.40;47.00
3699;DHT22;1865;50.918;7.092;2023-06-26T07:36:20;25.70;46.20
3699;DHT22;1865;50.918;7.092;2023-06-26T07:38:46;25.70;46.20
3699;DHT22;1865;50.918;7.092;2023-06-26T07:41:11;25.90;45.80
3699;DHT22;1865;50.918;7.092;2023-06-26T07:43:37;25.90;45.40
3699;DHT22;1865;50.918;7.092;2023-06-26T07:46:03;25.40;45.90
3699;DHT22;1865;50.918;7.092;2023-06-26T07:48:28;25.40;46.70
3699;DHT22;1865;50.918;7.092;2023-06-26T07:50:54;25.30;47.20
3699;DHT22;1865;50.918;7.092;2023-06-26T07:53:19;25.50;46.80
3699;DHT22;1865;50.918;7.092;2023-06-26T07:55:45;25.60;47.20
3699;DHT22;1865;50.918;7.092;2023-06-26T07:58:10;26.00;46.60
3699;DHT22;1865;50.918;7.092;2023-06-26T08:00:36;26.00;45.70
3699;DHT22;1865;50.918;7.092;2023-06-26T08:03:02;26.10;45.90
3699;DHT22;1865;50.918;7.092;2023-06-26T08:05:27;26.20;45.50
3699;DHT22;1865;50.918;7.092;2023-06-26T08:07:53;26.20;45.90
3699;DHT22;1865;50.918;7.092;2023-06-26T08:10:18;26.30;46.00
3699;DHT22;1865;50.918;7.092;2023-06-26T08:12:44;26.10;44.40
3699;DHT22;1865;50.918;7.092;2023-06-26T08:15:11;26.20;45.40
3699;DHT22;1865;50.918;7.092;2023-06-26T08:17:37;26.20;45.20
3699;DHT22;1865;50.918;7.092;2023-06-26T08:20:04;26.20;45.60
3699;DHT22;1865;50.918;7.092;2023-06-26T08:22:30;26.00;44.80
3699;DHT22;1865;50.918;7.092;2023-06-26T08:24:55;26.00;45.70
3699;DHT22;1865;50.918;7.092;2023-06-26T08:27:21;26.10;45.80
3699;DHT22;1865;50.918;7.092;2023-06-26T08:29:47;25.90;45.20
3699;DHT22;1865;50.918;7.092;2023-06-26T08:32:12;26.00;45.80
3699;DHT22;1865;50.918;7.092;2023-06-26T08:34:38;26.00;45.80
3699;DHT22;1865;50.918;7.092;2023-06-26T08:37:04;26.00;45.70
3699;DHT22;1865;50.918;7.092;2023-06-26T08:39:30;26.10;45.70
3699;DHT22;1865;50.918;7.092;2023-06-26T08:41:55;26.20;45.00
3699;DHT22;1865;50.918;7.092;2023-06-26T08:44:21;26.30;45.40
3699;DHT22;1865;50.918;7.092;2023-06-26T08:46:50;26.30;44.60
3699;DHT22;1865;50.918;7.092;2023-06-26T08:49:20;26.10;44.50
3699;DHT22;1865;50.918;7.092;2023-06-26T08:51:59;26.10;45.00
3699;DHT22;1865;50.918;7.092;2023-06-26T08:54:36;26.10;45.70
3699;DHT22;1865;50.918;7.092;2023-06-26T08:57:03;26.50;44.60
3699;DHT22;1865;50.918;7.092;2023-06-26T08:59:30;26.50;44.30
3699;DHT22;1865;50.918;7.092;2023-06-26T09:01:56;26.40;43.80
3699;DHT22;1865;50.918;7.092;2023-06-26T09:04:22;26.60;43.60
3699;DHT22;1865;50.918;7.092;2023-06-26T09:06:47;26.20;43.30
3699;DHT22;1865;50.918;7.092;2023-06-26T09:09:13;26.10;43.70
3699;DHT22;1865;50.918;7.092;2023-06-26T09:11:38;26.30;44.20
3699;DHT22;1865;50.918;7.092;2023-06-26T09:14:04;26.30;42.70
3699;DHT22;1865;50.918;7.092;2023-06-26T09:16:32;26.50;42.80
3699;DHT22;1865;50.918;7.092;2023-06-26T09:19:08;26.50;42.60
3699;DHT22;1865;50.918;7.092;2023-06-26T09:21:34;26.60;43.10
3699;DHT22;1865;50.918;7.092;2023-06-26T09:24:00;26.50;43.10
3699;DHT22;1865;50.918;7.092;2023-06-26T09:26:25;26.50;44.50
3699;DHT22;1865;50.918;7.092;2023-06-26T09:28:51;26.40;43.30
3699;DHT22;1865;50.918;7.092;2023-06-26T09:31:17;26.30;43.50
3699;DHT22;1865;50.918;7.092;2023-06-26T09:33:42;26.20;44.50
3699;DHT22;1865;50.918;7.092;2023-06-26T09:36:20;26.60;44.30
3699;DHT22;1865;50.918;7.092;2023-06-26T09:38:50;26.60;43.40
3699;DHT22;1865;50.918;7.092;2023-06-26T09:41:19;26.80;42.40
3699;DHT22;1865;50.918;7.092;2023-06-26T09:43:48;26.90;42.80
3699;DHT22;1865;50.918;7.092;2023-06-26T09:46:24;27.10;42.30
3699;DHT22;1865;50.918;7.092;2023-06-26T09:49:00;27.10;41.60
3699;DHT22;1865;50.918;7.092;2023-06-26T09:51:26;27.00;40.70
3699;DHT22;1865;50.918;7.092;2023-06-26T09:53:52;26.90;41.90
3699;DHT22;1865;50.918;7.092;2023-06-26T09:56:17;27.00;42.20
3699;DHT22;1865;50.918;7.092;2023-06-26T09:58:44;27.10;41.80
3699;DHT22;1865;50.918;7.092;2023-06-26T10:01:09;27.00;41.60
3699;DHT22;1865;50.918;7.092;2023-06-26T10:03:35;26.90;40.70
3699;DHT22;1865;50.918;7.092;2023-06-26T10:06:02;26.70;39.90
3699;DHT22;1865;50.918;7.092;2023-06-26T10:08:28;26.70;40.00
3699;DHT22;1865;50.918;7.092;2023-06-26T10:10:56;27.00;40.70
3699;DHT22;1865;50.918;7.092;2023-06-26T10:13:31;27.00;40.60
3699;DHT22;1865;50.918;7.092;2023-06-26T10:16:00;27.20;39.30
3699;DHT22;1865;50.918;7.092;2023-06-26T10:18:27;27.30;39.20
3699;DHT22;1865;50.918;7.092;2023-06-26T10:20:56;27.60;39.80
3699;DHT22;1865;50.918;7.092;2023-06-26T10:23:23;27.70;38.00
3699;DHT22;1865;50.918;7.092;2023-06-26T10:25:52;27.80;36.70
3699;DHT22;1865;50.918;7.092;2023-06-26T10:28:21;27.50;37.60
3699;DHT22;1865;50.918;7.092;2023-06-26T10:30:50;27.60;37.90
3699;DHT22;1865;50.918;7.092;2023-06-26T10:33:16;27.60;37.90
3699;DHT22;1865;50.918;7.092;2023-06-26T10:35:45;27.70;37.80
3699;DHT22;1865;50.918;7.092;2023-06-26T10:38:11;27.50;38.70
3699;DHT22;1865;50.918;7.092;2023-06-26T10:40:43;27.70;38.60
3699;DHT22;1865;50.918;7.092;2023-06-26T10:43:14;27.70;37.40
3699;DHT22;1865;50.918;7.092;2023-06-26T10:45:48;27.30;35.40
3699;DHT22;1865;50.918;7.092;2023-06-26T10:48:17;27.50;37.60
3699;DHT22;1865;50.918;7.092;2023-06-26T10:50:43;27.50;36.80
3699;DHT22;1865;50.918;7.092;2023-06-26T11:03:37;28.00;33.80
3699;DHT22;1865;50.918;7.092;2023-06-26T11:06:28;28.30;36.10
3699;DHT22;1865;50.918;7.092;2023-06-26T11:08:59;29.20;34.90
3699;DHT22;1865;50.918;7.092;2023-06-26T11:14:21;29.00;30.90
3699;DHT22;1865;50.918;7.092;2023-06-26T11:16:46;28.80;32.10
3699;DHT22;1865;50.918;7.092;2023-06-26T11:19:13;28.50;32.10
3699;DHT22;1865;50.918;7.092;2023-06-26T11:21:39;28.60;31.70
3699;DHT22;1865;50.918;7.092;2023-06-26T11:24:06;28.70;32.30
3699;DHT22;1865;50.918;7.092;2023-06-26T11:26:38;29.00;32.20
3699;DHT22;1865;50.918;7.092;2023-06-26T11:29:03;29.00;31.80
3699;DHT22;1865;50.918;7.092;2023-06-26T11:31:34;28.80;32.20
3699;DHT22;1865;50.918;7.092;2023-06-26T11:34:03;28.50;29.60
3699;DHT22;1865;50.918;7.092;2023-06-26T11:36:29;28.50;30.50
3699;DHT22;1865;50.918;7.092;2023-06-26T11:38:56;28.40;30.10
3699;DHT22;1865;50.918;7.092;2023-06-26T11:41:24;28.40;30.50
3699;DHT22;1865;50.918;7.092;2023-06-26T11:43:51;28.20;31.20
3699;DHT22;1865;50.918;7.092;2023-06-26T11:46:19;28.30;32.00
3699;DHT22;1865;50.918;7.092;2023-06-26T11:48:44;28.60;32.50
3699;DHT22;1865;50.918;7.092;2023-06-26T11:51:12;28.60;31.70
3699;DHT22;1865;50.918;7.092;2023-06-26T11:53:42;28.20;30.50
3699;DHT22;1865;50.918;7.092;2023-06-26T11:56:10;28.00;30.10
3699;DHT22;1865;50.918;7.092;2023-06-26T11:58:36;28.20;28.10
3699;DHT22;1865;50.918;7.092;2023-06-26T12:01:02;28.30;28.30
3699;DHT22;1865;50.918;7.092;2023-06-26T12:03:29;28.60;29.40
3699;DHT22;1865;50.918;7.092;2023-06-26T12:05:55;29.00;30.60
3699;DHT22;1865;50.918;7.092;2023-06-26T12:08:21;29.30;30.20
3699;DHT22;1865;50.918;7.092;2023-06-26T12:10:47;29.70;28.50
3699;DHT22;1865;50.918;7.092;2023-06-26T12:13:13;29.90;29.40
3699;DHT22;1865;50.918;7.092;2023-06-26T12:15:38;30.10;28.80
3699;DHT22;1865;50.918;7.092;2023-06-26T12:18:10;30.10;28.70
3699;DHT22;1865;50.918;7.092;2023-06-26T12:20:40;30.00;28.90
3699;DHT22;1865;50.918;7.092;2023-06-26T12:23:12;29.70;25.30
3699;DHT22;1865;50.918;7.092;2023-06-26T12:25:38;29.40;26.80
3699;DHT22;1865;50.918;7.092;2023-06-26T12:28:03;29.30;28.10
3699;DHT22;1865;50.918;7.092;2023-06-26T12:30:40;29.30;28.60
3699;DHT22;1865;50.918;7.092;2023-06-26T12:33:13;29.40;27.60
3699;DHT22;1865;50.918;7.092;2023-06-26T12:35:39;29.40;27.60
3699;DHT22;1865;50.918;7.092;2023-06-26T12:38:07;29.60;28.20
3699;DHT22;1865;50.918;7.092;2023-06-26T12:40:35;29.60;27.80
3699;DHT22;1865;50.918;7.092;2023-06-26T12:43:11;29.80;28.40
3699;DHT22;1865;50.918;7.092;2023-06-26T12:45:38;29.50;28.00
3699;DHT22;1865;50.918;7.092;2023-06-26T12:48:37;29.20;28.50
3699;DHT22;1865;50.918;7.092;2023-06-26T12:51:12;29.00;29.80
3699;DHT22;1865;50.918;7.092;2023-06-26T12:53:38;28.60;28.80
3699;DHT22;1865;50.918;7.092;2023-06-26T12:56:05;28.20;28.80
3699;DHT22;1865;50.918;7.092;2023-06-26T12:58:32;28.60;28.30
3699;DHT22;1865;50.918;7.092;2023-06-26T13:00:57;28.60;27.70
3699;DHT22;1865;50.918;7.092;2023-06-26T13:03:23;28.60;29.20
3699;DHT22;1865;50.918;7.092;2023-06-26T13:05:48;28.70;29.80
3699;DHT22;1865;50.918;7.092;2023-06-26T13:08:14;28.60;30.40
3699;DHT22;1865;50.918;7.092;2023-06-26T13:10:42;28.70;31.30
3699;DHT22;1865;50.918;7.092;2023-06-26T13:13:12;29.30;29.60
3699;DHT22;1865;50.918;7.092;2023-06-26T13:15:38;30.00;28.30
3699;DHT22;1865;50.918;7.092;2023-06-26T13:18:03;29.90;27.00
3699;DHT22;1865;50.918;7.092;2023-06-26T13:20:29;29.70;27.80
3699;DHT22;1865;50.918;7.092;2023-06-26T13:22:55;30.00;27.20
3699;DHT22;1865;50.918;7.092;2023-06-26T13:25:21;30.50;26.30
3699;DHT22;1865;50.918;7.092;2023-06-26T13:27:47;30.80;26.50
3699;DHT22;1865;50.918;7.092;2023-06-26T13:30:14;31.30;25.40
3699;DHT22;1865;50.918;7.092;2023-06-26T13:32:40;31.70;25.90
3699;DHT22;1865;50.918;7.092;2023-06-26T13:35:06;31.90;26.80
3699;DHT22;1865;50.918;7.092;2023-06-26T13:37:33;31.60;26.70
3699;DHT22;1865;50.918;7.092;2023-06-26T13:40:00;31.10;26.30
3699;DHT22;1865;50.918;7.092;2023-06-26T13:42:27;30.70;26.80
3699;DHT22;1865;50.918;7.092;2023-06-26T13:44:53;30.00;26.60
3699;DHT22;1865;50.918;7.092;2023-06-26T13:47:18;29.80;27.30
3699;DHT22;1865;50.918;7.092;2023-06-26T13:49:44;29.80;26.90
3699;DHT22;1865;50.918;7.092;2023-06-26T13:52:09;30.10;27.20
3699;DHT22;1865;50.918;7.092;2023-06-26T13:54:38;30.70;25.90
3699;DHT22;1865;50.918;7.092;2023-06-26T13:57:06;30.80;24.70
3699;DHT22;1865;50.918;7.092;2023-06-26T13:59:31;31.50;23.90
3699;DHT22;1865;50.918;7.092;2023-06-26T14:01:57;31.80;22.80
3699;DHT22;1865;50.918;7.092;2023-06-26T14:04:22;31.90;23.50
3699;DHT22;1865;50.918;7.092;2023-06-26T14:06:48;32.30;23.00
3699;DHT22;1865;50.918;7.092;2023-06-26T14:09:14;33.20;23.10
3699;DHT22;1865;50.918;7.092;2023-06-26T14:11:39;33.00;23.10
3699;DHT22;1865;50.918;7.092;2023-06-26T14:14:05;33.80;21.40
3699;DHT22;1865;50.918;7.092;2023-06-26T14:16:30;34.10;20.90
3699;DHT22;1865;50.918;7.092;2023-06-26T14:18:57;34.60;20.90
3699;DHT22;1865;50.918;7.092;2023-06-26T14:21:22;34.90;19.60
3699;DHT22;1865;50.918;7.092;2023-06-26T14:23:48;34.10;20.80
3699;DHT22;1865;50.918;7.092;2023-06-26T14:26:13;33.30;21.10
3699;DHT22;1865;50.918;7.092;2023-06-26T14:28:39;32.70;20.70
3699;DHT22;1865;50.918;7.092;2023-06-26T14:31:05;31.90;22.80
3699;DHT22;1865;50.918;7.092;2023-06-26T14:33:31;31.00;22.70
3699;DHT22;1865;50.918;7.092;2023-06-26T14:35:56;30.70;23.90
3699;DHT22;1865;50.918;7.092;2023-06-26T14:38:22;30.60;22.90
3699;DHT22;1865;50.918;7.092;2023-06-26T14:40:47;30.80;24.00
3699;DHT22;1865;50.918;7.092;2023-06-26T14:43:13;30.40;22.20
3699;DHT22;1865;50.918;7.092;2023-06-26T14:45:39;30.10;24.20
3699;DHT22;1865;50.918;7.092;2023-06-26T14:48:04;29.70;24.50
3699;DHT22;1865;50.918;7.092;2023-06-26T14:50:30;29.20;25.30
3699;DHT22;1865;50.918;7.092;2023-06-26T14:52:55;29.00;25.20
3699;DHT22;1865;50.918;7.092;2023-06-26T14:55:21;28.90;25.70
3699;DHT22;1865;50.918;7.092;2023-06-26T14:57:46;28.90;25.40
3699;DHT22;1865;50.918;7.092;2023-06-26T15:00:12;28.60;25.90
3699;DHT22;1865;50.918;7.092;2023-06-26T15:02:38;28.60;26.60
3699;DHT22;1865;50.918;7.092;2023-06-26T15:05:04;28.60;26.30
3699;DHT22;1865;50.918;7.092;2023-06-26T15:07:29;28.80;26.90
3699;DHT22;1865;50.918;7.092;2023-06-26T15:09:55;29.00;27.10
3699;DHT22;1865;50.918;7.092;2023-06-26T15:12:20;29.00;26.20
3699;DHT22;1865;50.918;7.092;2023-06-26T15:14:48;29.10;25.50
3699;DHT22;1865;50.918;7.092;2023-06-26T15:17:14;29.10;25.50
3699;DHT22;1865;50.918;7.092;2023-06-26T15:19:39;28.70;24.90
3699;DHT22;1865;50.918;7.092;2023-06-26T15:22:06;28.20;26.00
3699;DHT22;1865;50.918;7.092;2023-06-26T15:24:32;28.10;26.40
3699;DHT22;1865;50.918;7.092;2023-06-26T15:26:57;28.20;26.20
3699;DHT22;1865;50.918;7.092;2023-06-26T15:29:23;28.20;25.80
3699;DHT22;1865;50.918;7.092;2023-06-26T15:31:49;28.10;26.30
3699;DHT22;1865;50.918;7.092;2023-06-26T15:34:14;28.20;25.80
3699;DHT22;1865;50.918;7.092;2023-06-26T15:36:40;28.20;26.40
3699;DHT22;1865;50.918;7.092;2023-06-26T15:39:05;28.40;26.30
3699;DHT22;1865;50.918;7.092;2023-06-26T15:41:31;28.30;25.40
3699;DHT22;1865;50.918;7.092;2023-06-26T15:43:56;28.20;25.10
3699;DHT22;1865;50.918;7.092;2023-06-26T15:46:22;28.20;24.70
3699;DHT22;1865;50.918;7.092;2023-06-26T15:48:48;28.20;24.40
3699;DHT22;1865;50.918;7.092;2023-06-26T15:51:14;28.20;24.60
3699;DHT22;1865;50.918;7.092;2023-06-26T15:53:42;28.20;24.50
3699;DHT22;1865;50.918;7.092;2023-06-26T15:56:10;28.20;25.30
3699;DHT22;1865;50.918;7.092;2023-06-26T15:58:36;28.40;25.70
3699;DHT22;1865;50.918;7.092;2023-06-26T16:01:07;28.60;25.70
3699;DHT22;1865;50.918;7.092;2023-06-26T16:03:33;28.60;25.50
3699;DHT22;1865;50.918;7.092;2023-06-26T16:05:58;28.60;25.30
3699;DHT22;1865;50.918;7.092;2023-06-26T16:08:25;28.70;24.70
3699;DHT22;1865;50.918;7.092;2023-06-26T16:10:53;28.60;24.60
3699;DHT22;1865;50.918;7.092;2023-06-26T16:13:18;28.40;24.50
3699;DHT22;1865;50.918;7.092;2023-06-26T16:15:47;28.40;25.30
3699;DHT22;1865;50.918;7.092;2023-06-26T16:18:12;28.30;25.20
3699;DHT22;1865;50.918;7.092;2023-06-26T16:20:38;28.20;25.20